Nearby METAR Reports

 

KAVP - Avoca/Wilkes B., Pennsylvania, USA
Distance from station: N 16mi, 25km
Updated: 02/26/2020 11:54am
Overcast
Overcast
 Wind from varies
Wind: varies 3 mph , 6 km/h
Temperature: 48°F , 9°C
Dew Point: 41°F , 5°C
Humidity: 76%
Barometer: 29.89 inHg , 1012.2 hPa
Clouds: Overcast
Visibility: 10 miles , 16 km
Cloud details: Mostly cloudy 1400 ft
Overcast 2200 ft
2020/02/26 16:54 KAVP 261654Z VRB03KT 10SM BKN014 OVC022 09/05 A2989 RMK AO2 SLP121 T00890050
KMPO - Mt. Pocono, Pennsylvania, USA
Distance from station: E 20mi, 33km
Updated: 02/26/2020 11:53am
Fog, Overcast
Fog, Overcast
 Wind from E
Wind: E 7 mph , 11 km/h
Temperature: 39°F , 4°C
Wind Chill: 34°F , 1°C
Dew Point: 39°F , 4°C
Humidity: 100%
Barometer: 29.88 inHg , 1011.9 hPa
Summary: Fog
Clouds: Overcast
Visibility: less than 1/4 mile , 0.4 km
Cloud details: Overcast 100 ft
2020/02/26 16:53 KMPO 261653Z AUTO 10006KT M1/4SM FG VV001 04/04 A2988 RMK AO2 SLP130 T00390039
 
KABE - Allentown, Pennsylvania, USA
Distance from station: SSE 36mi, 58km
Updated: 02/26/2020 11:51am
Haze, Overcast
Haze, Overcast
 Wind from ENE
Wind: ENE 5 mph , 7 km/h
Temperature: 50°F , 10°C
Wind Chill: 48°F , 9°C
Dew Point: 45°F , 7°C
Humidity: 82%
Barometer: 29.91 inHg , 1012.9 hPa
Summary: Haze
Clouds: Overcast
Visibility: 4 miles , 6 km
Cloud details: Overcast 500 ft
2020/02/26 16:51 KABE 261651Z 06004KT 4SM HZ OVC005 10/07 A2991 RMK AO2 SLP130 T01000067
KXLL - Allentown Queen, Pennsylvania, USA
Distance from station: SSE 41mi, 65km
Updated: 02/26/2020 11:55am
Overcast
Overcast
 Wind from ENE
Wind: ENE 3 mph , 6 km/h
Temperature: 48°F , 9°C
Dew Point: 46°F , 8°C
Humidity: 94%
Barometer: 29.91 inHg , 1012.9 hPa
Clouds: Overcast
Visibility: 7 miles , 11 km
Cloud details: Overcast 700 ft
2020/02/26 16:55 KXLL 261655Z AUTO 06003KT 7SM OVC007 09/08 A2991 RMK AO2